Latest Coastal Weather Observations for Cape Leeuwin

IDW60701

Issued at 8:55 am WST Tuesday 16 September 2014 (issued every 10 minutes, with the page automatically refreshed every 10 minutes)

About coastal observations | Map of coastal stations | Coastal observations for WA | Marine services | Other Formats
Station Details ID: 009518 Name: CAPE LEEUWIN Lat: -34.37 Lon: 115.14 Height: 13.0 m
Data from the previous 72 hours. | See also: Recent months at Cape Leeuwin
Date/Time
WST
Temp

°C
Wind Pressure Rain
since 9am
mm
Weather Cloud Vis
km
Sea
Height
m
Swell
Dir
 
Speed
knots
Gust
knots
hPa Trend Height
m
Period
s
Dir
16/08:30am 14.4 ENE 13 17 1023.6 - 0.0 - - - - - - -
16/08:00am 12.8 NE 12 15 1023.3 - 0.0 - - - - - - -
16/07:30am 11.6 NE 13 17 1022.9 - 0.0 - - - - - - -
16/07:00am 11.3 NE 13 17 1022.9 - 0.0 - - - - - - -
16/06:30am 11.4 ENE 11 14 1022.8 - 0.0 - - - - - - -
16/06:00am 11.8 ENE 13 16 1022.6 - 0.0 - - - - - - -
16/05:30am 11.4 ENE 11 14 1022.6 - 0.0 - - - - - - -
16/05:00am 11.4 ENE 11 13 1022.6 - 0.0 - - - - - - -
16/04:30am 11.4 ENE 12 14 1022.5 - 0.0 - - - - - - -
16/04:00am 11.5 ENE 13 17 1022.4 - 0.0 - - - - - - -
16/03:30am 12.2 ENE 10 12 1022.7 - 0.0 - - - - - - -
16/03:00am 12.9 ENE 10 14 1022.9 - 0.0 - - - - - - -
16/02:30am 13.0 ENE 11 13 1022.9 - 0.0 - - - - - - -
16/02:00am 13.5 ENE 10 15 1023.2 - 0.0 - - - - - - -
16/01:30am 14.9 ESE 13 17 1023.4 - 0.0 - - - - - - -
16/01:00am 14.9 ESE 14 19 1023.5 - 0.0 - - - - - - -
16/12:30am 14.6 SE 12 16 1023.6 - 0.0 - - - - - - -
16/12:00am 14.6 SE 14 18 1023.8 - 0.0 - - - - - - -
 
Date/Time
WST
Temp

°C
Wind Pressure Rain
since 9am
mm
Weather Cloud Vis
km
Sea
Height
m
Swell
Dir
 
Speed
knots
Gust
knots
hPa Trend Height
m
Period
s
Dir
15/11:30pm 14.7 SE 14 18 1024.0 - 0.0 - - - - - - -
15/11:00pm 14.6 SE 14 18 1024.3 - 0.0 - - - - - - -
15/10:30pm 14.7 SSE 14 17 1024.6 - 0.0 - - - - - - -
15/10:00pm 14.7 SSE 14 18 1025.0 - 0.0 - - - - - - -
15/09:30pm 14.5 SSE 13 17 1025.3 - 0.0 - - - - - - -
15/09:00pm 14.4 SSE 12 16 1025.4 - 0.0 - - - - - - -
15/08:30pm 14.4 SSE 13 17 1025.4 - 0.0 - - - - - - -
15/08:00pm 14.6 SSE 12 16 1025.3 - 0.0 - - - - - - -
15/07:30pm 14.4 SSE 12 16 1025.1 - 0.0 - - - - - - -
15/07:00pm 14.4 SSE 12 16 1025.0 - 0.0 - - - - - - -
15/06:30pm 14.4 SSE 11 15 1024.9 - 0.0 - - - - - - -
15/06:00pm 14.7 SSE 11 17 1024.8 - 0.0 - - - - - - -
15/05:30pm 15.0 SSE 10 15 1024.5 - 0.0 - - - - - - -
15/05:00pm 15.7 S 10 13 1024.4 - 0.0 - - - - - - -
15/04:30pm 16.1 S 9 14 1024.4 - 0.0 - - - - - - -
15/04:00pm 16.4 S 9 13 1024.4 - 0.0 - - - - - - -
15/03:30pm 16.8 SSE 8 12 1024.3 - 0.0 - - - - - - -
15/03:00pm 17.2 SSE 8 12 1024.4 - 0.0 - - - - - - -
15/02:30pm 16.6 SSE 8 15 1024.4 - 0.0 - - - - - - -
15/02:00pm 17.2 S 6 9 1024.5 - 0.0 - - - - - - -
15/01:30pm 17.6 S 8 11 1024.7 - 0.0 - - - - - - -
15/01:00pm 17.2 SSE 7 10 1024.7 - 0.0 - - - - - - -
15/12:30pm 17.1 SSE 6 9 1024.9 - 0.0 - - - - - - -
15/12:00pm 17.3 SSE 7 10 1025.2 - 0.0 - - - - - - -
15/11:30am 16.6 SSE 6 9 1025.4 - 0.0 - - - - - - -
15/11:00am 15.8 SSE 6 9 1025.6 - 0.0 - - - - - - -
15/10:30am 15.5 SSE 7 10 1025.8 - 0.0 - - - - - - -
15/10:00am 16.0 S 7 11 1026.1 - 0.0 - - - - - - -
15/09:30am 15.3 SSE 7 11 1026.2 - 0.0 - - - - - - -
15/09:00am 15.1 S 7 11 1026.3 - 0.0 - - - - - - -
15/08:30am 14.5 SSE 9 13 1026.4 - 0.0 - - - - - - -
15/08:00am 14.6 SE 9 13 1026.2 - 0.0 - - - - - - -
15/07:30am 14.1 SE 8 12 1026.1 - 0.0 - - - - - - -
15/07:00am 13.5 SSE 9 13 1026.1 - 0.0 - - - - - - -
15/06:30am 12.8 S 6 11 1026.0 - 0.0 - - - - - - -
15/06:00am 13.2 S 9 14 1025.8 - 0.0 - - - - - - -
15/05:30am 13.3 S 9 15 1025.7 - 0.0 - - - - - - -
15/05:00am 13.2 S 9 12 1025.5 - 0.0 - - - - - - -
15/04:30am 13.0 S 7 9 1025.5 - 0.0 - - - - - - -
15/04:00am 13.1 S 9 11 1025.4 - 0.0 - - - - - - -
15/03:30am 13.0 S 9 11 1025.1 - 0.0 - - - - - - -
15/03:00am 13.3 S 9 13 1025.1 - 0.0 - - - - - - -
15/02:30am 13.2 S 8 11 1025.2 - 0.0 - - - - - - -
15/02:00am 13.3 SSW 9 13 1025.3 - 0.0 - - - - - - -
15/01:30am 13.5 S 9 15 1025.3 - 0.0 - - - - - - -
15/01:00am 13.5 SSW 11 14 1025.5 - 0.0 - - - - - - -
15/12:30am 13.5 S 9 14 1025.4 - 0.0 - - - - - - -
15/12:00am 13.3 SSE 7 11 1025.3 - 0.0 - - - - - - -
 
Date/Time
WST
Temp

°C
Wind Pressure Rain
since 9am
mm
Weather Cloud Vis
km
Sea
Height
m
Swell
Dir
 
Speed
knots
Gust
knots
hPa Trend Height
m
Period
s
Dir
14/11:30pm 13.3 SSE 9 13 1025.3 - 0.0 - - - - - - -
14/11:00pm 13.2 S 10 15 1025.5 - 0.0 - - - - - - -
14/10:30pm 12.6 S 8 10 1025.7 - 0.0 - - - - - - -
14/10:00pm 12.9 S 7 12 1025.5 - 0.0 - - - - - - -
14/09:30pm 12.8 SSE 7 10 1025.5 - 0.0 - - - - - - -
14/09:00pm 13.0 SSW 8 11 1025.8 - 0.0 - - - - - - -
14/08:30pm 13.0 S 8 12 1025.7 - 0.0 - - - - - - -
14/08:00pm 13.1 S 9 14 1025.4 - 0.0 - - - - - - -
14/07:30pm 13.2 S 10 15 1025.1 - 0.0 - - - - - - -
14/07:00pm 13.4 SSW 11 14 1025.1 - 0.0 - - - - - - -
14/06:30pm 13.5 S 13 16 1024.8 - 0.0 - - - - - - -
14/06:00pm 13.8 S 11 15 1024.6 - 0.0 - - - - - - -
14/05:30pm 14.5 SSW 11 14 1024.4 - 0.0 - - - - - - -
14/05:00pm 15.4 SSW 13 17 1024.1 - 0.0 - - - - - - -
14/04:30pm 15.8 S 9 13 1023.8 - 0.0 - - - - - - -
14/04:00pm 16.0 S 9 11 1023.4 - 0.0 - - - - - - -
14/03:30pm 16.0 S 11 15 1023.2 - 0.0 - - - - - - -
14/03:00pm 17.3 SSW 10 14 1022.9 - 0.0 - - - - - - -
14/02:30pm 17.2 SSW 10 13 1022.9 - 0.0 - - - - - - -
14/02:00pm 16.9 SSW 13 16 1022.7 - 0.0 - - - - - - -
14/01:30pm 16.9 SSW 13 17 1022.7 - 0.0 - - - - - - -
14/01:00pm 16.9 SSW 14 18 1022.7 - 0.0 - - - - - - -
14/12:30pm 16.7 SSW 13 16 1022.6 - 0.0 - - - - - - -
14/12:00pm 16.7 SSW 11 14 1022.6 - 0.0 - - - - - - -
14/11:30am 16.1 SW 15 18 1022.7 - 0.0 - - - - - - -
14/11:00am 16.2 SW 14 19 1022.6 - 0.0 - - - - - - -
14/10:30am 15.6 SW 15 19 1022.4 - 0.0 - - - - - - -
14/10:00am 15.8 SW 17 20 1022.2 - 0.0 - - - - - - -
14/09:30am 16.0 SW 16 19 1021.8 - 0.0 - - - - - - -
14/09:00am 16.0 WSW 17 26 1021.7 - 2.2 Rain - - - - - -
14/08:53am 16.2 WSW 20 26 1021.7 - 0.8 - - - - - - -
14/08:30am 16.9 NW 15 19 1021.6 - 0.0 - - - - - - -
14/08:00am 17.2 NW 16 19 1021.3 - 0.0 - - - - - - -
14/07:30am 17.1 NW 11 15 1021.1 - 0.0 - - - - - - -
14/07:00am 17.0 NW 14 17 1021.0 - 0.0 - - - - - - -
14/06:30am 16.9 NW 14 16 1020.7 - 0.0 - - - - - - -
14/06:00am 17.0 WNW 15 18 1020.7 - 0.0 - - - - - - -
14/05:30am 16.8 WNW 14 16 1020.6 - 0.0 - - - - - - -
14/05:00am 16.8 WNW 15 19 1020.6 - 0.0 - - - - - - -
14/04:30am 16.8 WNW 17 19 1020.4 - 0.0 - - - - - - -
14/04:00am 16.6 WNW 16 19 1020.5 - 0.0 - - - - - - -
14/03:30am 16.7 WNW 18 21 1020.5 - 0.0 - - - - - - -
14/03:00am 16.4 WNW 15 20 1020.2 - 0.0 - - - - - - -
14/02:30am 16.5 WNW 16 20 1020.6 - 0.0 - - - - - - -
14/02:00am 16.2 NW 11 17 1020.7 - 0.0 - - - - - - -
14/01:30am 16.2 NW 13 15 1020.7 - 0.0 - - - - - - -
14/01:00am 16.1 WNW 15 18 1021.3 - 0.0 - - - - - - -
14/12:30am 16.1 WNW 15 18 1021.4 - 0.0 - - - - - - -
14/12:00am 16.1 WNW 13 16 1021.4 - 0.0 - - - - - - -
 
Date/Time
WST
Temp

°C
Wind Pressure Rain
since 9am
mm
Weather Cloud Vis
km
Sea
Height
m
Swell
Dir
 
Speed
knots
Gust
knots
hPa Trend Height
m
Period
s
Dir
13/11:30pm 15.9 NW 14 17 1021.3 - 0.0 - - - - - - -
13/11:00pm 15.9 WNW 14 17 1021.6 - 0.0 - - - - - - -
13/10:30pm 16.0 W 16 19 1021.9 - 0.0 - - - - - - -
13/10:00pm 16.0 W 17 20 1022.2 - 0.0 - - - - - - -
13/09:30pm 16.1 W 18 22 1022.1 - 0.0 - - - - - - -
13/09:00pm 16.2 WNW 17 21 1022.3 - 0.0 - - - - - - -
13/08:30pm 16.2 WNW 16 19 1022.3 - 0.0 - - - - - - -
13/08:00pm 16.2 WNW 17 21 1022.3 - 0.0 - - - - - - -
13/07:30pm 16.4 WNW 16 21 1022.1 - 0.0 - - - - - - -
13/07:00pm 16.2 WNW 13 15 1021.9 - 0.0 - - - - - - -
13/06:30pm 16.4 W 13 17 1021.7 - 0.0 - - - - - - -
13/06:00pm 16.6 W 13 16 1021.6 - 0.0 - - - - - - -
13/05:30pm 17.1 WNW 14 17 1021.3 - 0.0 - - - - - - -
13/05:00pm 17.4 WNW 12 14 1021.1 - 0.0 - - - - - - -
13/04:30pm 17.6 WNW 11 13 1020.7 - 0.0 - - - - - - -
13/04:00pm 17.8 WNW 8 11 1020.5 - 0.0 - - - - - - -
13/03:30pm 17.6 W 7 10 1020.7 - 0.0 - - - - - - -
13/03:00pm 17.7 WNW 7 9 1020.8 - 0.0 - - - - - - -
13/02:30pm 17.5 W 6 8 1020.9 - 0.0 - - - - - - -
13/02:00pm 17.4 W 6 9 1020.9 - 0.0 - - - - - - -
13/01:30pm 17.7 WSW 6 9 1021.3 - 0.0 - - - - - - -
13/01:00pm 17.4 SSW 5 7 1021.6 - 0.0 - - - - - - -
13/12:30pm 17.5 S 5 8 1021.8 - 0.0 - - - - - - -
13/12:00pm 17.3 ESE 5 7 1022.0 - 0.0 - - - - - - -
13/11:30am 16.9 WSW 5 7 1022.4 - 0.0 - - - - - - -
13/11:00am 16.7 ESE 5 8 1022.5 - 0.0 - - - - - - -
13/10:30am 16.6 S 5 7 1022.9 - 0.0 - - - - - - -
13/10:00am 16.5 S 6 8 1022.9 - 0.0 - - - - - - -
13/09:30am 16.5 ESE 5 7 1022.6 - 0.0 - - - - - - -
13/09:00am 16.0 SSE 6 8 1022.8 - 0.8 - - - - - - -

Other Formats:

Comma delimited format used in spreadsheet applications
http://www.bom.gov.au/fwo/IDW60701/IDW60701.94601.axf

JavaScript Object Notation format (JSON) in row-major order
http://www.bom.gov.au/fwo/IDW60701/IDW60701.94601.json